createdAt,value
2023-03-14T00:00:12.774Z,82.00
2023-03-14T00:02:41.016Z,81.90
2023-03-14T00:05:09.690Z,82.20
2023-03-14T00:07:38.772Z,82.40
2023-03-14T00:10:13.427Z,82.40
2023-03-14T00:12:44.138Z,82.50
2023-03-14T00:15:12.723Z,82.30
2023-03-14T00:17:40.306Z,82.40
2023-03-14T00:20:12.202Z,82.50
2023-03-14T00:22:40.616Z,82.70
2023-03-14T00:25:10.578Z,82.70
2023-03-14T00:27:38.188Z,82.70
2023-03-14T00:30:08.878Z,82.70
2023-03-14T00:32:36.541Z,82.80
2023-03-14T00:35:04.357Z,82.80
2023-03-14T00:37:31.608Z,83.00
2023-03-14T00:39:59.615Z,83.10
2023-03-14T00:42:27.116Z,83.30
2023-03-14T00:44:54.413Z,83.30
2023-03-14T00:47:21.736Z,83.60
2023-03-14T00:49:48.993Z,83.60
2023-03-14T00:52:16.254Z,83.80
2023-03-14T00:54:43.514Z,83.80
2023-03-14T00:57:10.846Z,83.60
2023-03-14T00:59:38.055Z,83.50
2023-03-14T01:02:05.339Z,83.50
2023-03-14T01:04:32.769Z,83.20
2023-03-14T01:06:59.974Z,83.00
2023-03-14T01:09:27.211Z,82.80
2023-03-14T01:11:54.434Z,82.60
2023-03-14T01:14:21.678Z,82.40
2023-03-14T01:16:48.886Z,82.30
2023-03-14T01:19:16.528Z,82.10
2023-03-14T01:21:43.861Z,82.00
2023-03-14T01:24:12.719Z,82.00
2023-03-14T01:26:40.021Z,81.90
2023-03-14T01:29:08.961Z,82.00
2023-03-14T01:31:39.585Z,82.20
2023-03-14T01:34:06.973Z,82.30
2023-03-14T01:36:34.369Z,82.30
2023-03-14T01:39:02.878Z,82.30
2023-03-14T01:41:30.624Z,82.30
2023-03-14T01:43:59.416Z,82.40
2023-03-14T01:46:32.966Z,82.30
2023-03-14T01:49:13.157Z,82.30
2023-03-14T01:51:47.448Z,81.90
2023-03-14T01:54:27.272Z,81.70
2023-03-14T01:57:04.163Z,81.60
2023-03-14T01:59:33.503Z,81.40
2023-03-14T02:02:02.133Z,81.20
2023-03-14T02:04:35.279Z,81.00
2023-03-14T02:07:23.390Z,80.90
2023-03-14T02:10:02.261Z,80.90
2023-03-14T02:12:33.332Z,80.60
2023-03-14T02:15:12.242Z,80.60
2023-03-14T02:18:02.460Z,80.40
2023-03-14T02:21:02.052Z,80.10
2023-03-14T02:23:36.549Z,79.80
2023-03-14T02:26:15.595Z,79.40
2023-03-14T02:28:43.148Z,79.20
2023-03-14T02:31:10.707Z,78.90
2023-03-14T02:33:39.329Z,78.50
2023-03-14T02:36:11.880Z,78.20
2023-03-14T02:38:47.901Z,78.00
2023-03-14T02:41:15.569Z,77.70
2023-03-14T02:43:48.568Z,77.70
2023-03-14T02:46:20.871Z,77.50
2023-03-14T02:48:57.984Z,77.00
2023-03-14T02:51:27.186Z,76.70
2023-03-14T02:53:54.471Z,76.60
2023-03-14T02:56:23.882Z,76.20
2023-03-14T02:58:51.185Z,76.40
2023-03-14T03:01:29.638Z,76.40
2023-03-14T03:03:56.995Z,76.40
2023-03-14T03:06:24.251Z,76.20
2023-03-14T03:08:51.492Z,76.00
2023-03-14T03:11:19.505Z,76.60
2023-03-14T03:13:48.402Z,76.90
2023-03-14T03:16:16.584Z,76.50
2023-03-14T03:18:46.525Z,76.00
2023-03-14T03:21:16.215Z,75.90
2023-03-14T03:23:51.981Z,75.70
2023-03-14T03:26:19.495Z,75.70
2023-03-14T03:28:47.261Z,75.30
2023-03-14T03:31:16.841Z,75.00
2023-03-14T03:33:45.979Z,74.70
2023-03-14T03:36:16.297Z,74.60
2023-03-14T03:38:44.524Z,74.60
2023-03-14T03:41:19.269Z,75.00
2023-03-14T03:43:49.190Z,75.10
2023-03-14T03:46:18.618Z,75.20
2023-03-14T03:48:48.714Z,75.40
2023-03-14T03:51:17.438Z,75.70
2023-03-14T03:53:49.474Z,75.50
2023-03-14T03:56:21.446Z,75.80
2023-03-14T03:58:49.121Z,75.70
2023-03-14T04:01:20.433Z,75.60
2023-03-14T04:03:53.071Z,75.20
2023-03-14T04:06:21.402Z,74.80
2023-03-14T04:08:53.064Z,75.00
2023-03-14T04:11:35.504Z,75.00
2023-03-14T04:14:27.616Z,74.70
2023-03-14T04:17:17.362Z,75.20
2023-03-14T04:19:45.737Z,75.10
2023-03-14T04:22:14.322Z,75.10
2023-03-14T04:24:49.104Z,74.60
2023-03-14T04:27:17.010Z,74.60
2023-03-14T04:29:46.336Z,74.70
2023-03-14T04:32:16.737Z,74.90
2023-03-14T04:34:44.898Z,75.40
2023-03-14T04:37:12.861Z,75.70
2023-03-14T04:39:44.320Z,75.80
2023-03-14T04:42:31.886Z,75.90
2023-03-14T04:44:59.610Z,75.50
2023-03-14T04:47:29.622Z,75.80
2023-03-14T04:49:57.783Z,75.60
2023-03-14T04:52:27.469Z,75.40
2023-03-14T04:54:54.835Z,75.50
2023-03-14T04:57:26.715Z,75.60
2023-03-14T04:59:58.355Z,75.80
2023-03-14T05:03:01.094Z,75.90
2023-03-14T05:05:58.422Z,75.80
2023-03-14T05:08:44.243Z,75.50
2023-03-14T05:11:35.160Z,75.60
2023-03-14T05:14:22.784Z,74.90
2023-03-14T05:17:19.814Z,74.40
2023-03-14T05:20:16.647Z,74.10
2023-03-14T05:23:13.022Z,74.10
2023-03-14T05:25:51.725Z,74.00
2023-03-14T05:28:39.188Z,74.40
2023-03-14T05:31:30.264Z,74.70
2023-03-14T05:34:08.994Z,75.30
2023-03-14T05:36:48.877Z,75.50
2023-03-14T05:39:56.379Z,75.80
2023-03-14T05:42:35.212Z,76.00
2023-03-14T05:45:19.878Z,76.40
2023-03-14T05:48:02.644Z,76.90
2023-03-14T05:50:42.752Z,77.30
2023-03-14T05:53:30.275Z,77.60
2023-03-14T05:56:34.297Z,77.90
2023-03-14T05:59:09.998Z,77.80
2023-03-14T06:02:00.273Z,77.40
2023-03-14T06:04:30.564Z,77.30
2023-03-14T06:07:00.579Z,76.80
2023-03-14T06:09:27.979Z,76.30
2023-03-14T06:11:58.129Z,76.30
2023-03-14T06:14:25.695Z,76.30
2023-03-14T06:16:54.021Z,75.80
2023-03-14T06:19:24.591Z,75.60
2023-03-14T06:21:52.585Z,75.40
2023-03-14T06:24:19.914Z,75.00
2023-03-14T06:26:50.198Z,75.00
2023-03-14T06:29:17.609Z,74.60
2023-03-14T06:31:45.260Z,74.30
2023-03-14T06:34:16.211Z,73.90
2023-03-14T06:36:44.341Z,74.10
2023-03-14T06:39:11.638Z,73.70
2023-03-14T06:41:43.376Z,73.40
2023-03-14T06:44:11.681Z,73.50
2023-03-14T06:46:39.286Z,73.70
2023-03-14T06:49:06.789Z,73.80
2023-03-14T06:51:35.339Z,73.70
2023-03-14T06:54:05.533Z,73.50
2023-03-14T06:56:33.159Z,73.40
2023-03-14T06:59:00.603Z,73.20
2023-03-14T07:01:33.485Z,73.30
2023-03-14T07:04:06.724Z,73.30
2023-03-14T07:06:36.656Z,73.60
2023-03-14T07:09:06.006Z,74.00
2023-03-14T07:11:35.585Z,74.20
2023-03-14T07:14:03.826Z,74.20
2023-03-14T07:16:34.054Z,74.60
2023-03-14T07:19:02.290Z,74.70
2023-03-14T07:21:29.717Z,74.60
2023-03-14T07:23:56.999Z,74.70
2023-03-14T07:26:24.450Z,74.80
2023-03-14T07:28:53.383Z,74.40
2023-03-14T07:31:21.435Z,74.50
2023-03-14T07:33:48.812Z,71.50
2023-03-14T07:36:17.550Z,71.30
2023-03-14T07:38:53.439Z,70.40
2023-03-14T07:41:33.696Z,70.10
2023-03-14T07:44:19.649Z,70.30
2023-03-14T07:46:46.975Z,71.10
2023-03-14T07:49:14.259Z,69.30
2023-03-14T07:51:41.722Z,69.60
2023-03-14T07:54:09.219Z,70.30
2023-03-14T07:56:36.633Z,69.50
2023-03-14T07:59:04.527Z,70.40
2023-03-14T08:01:32.003Z,70.10
2023-03-14T08:03:59.631Z,70.30
2023-03-14T08:06:27.090Z,70.10
2023-03-14T08:08:54.393Z,69.60
2023-03-14T08:11:21.774Z,70.10
2023-03-14T08:13:50.820Z,70.30
2023-03-14T08:16:18.822Z,69.80
2023-03-14T08:18:47.067Z,68.00
2023-03-14T08:21:14.717Z,68.90
2023-03-14T08:23:42.220Z,65.70
2023-03-14T08:26:09.696Z,66.00
2023-03-14T08:28:36.966Z,65.90
2023-03-14T08:31:04.414Z,64.70
2023-03-14T08:33:31.932Z,64.70
2023-03-14T08:36:01.375Z,62.90
2023-03-14T08:38:28.752Z,64.80
2023-03-14T08:41:00.592Z,65.00
2023-03-14T08:43:28.823Z,63.10
2023-03-14T08:45:59.718Z,63.10
2023-03-14T08:48:27.771Z,64.10
2023-03-14T08:50:55.019Z,62.90
2023-03-14T08:53:23.545Z,63.10
2023-03-14T08:55:55.256Z,64.10
2023-03-14T08:58:24.668Z,63.00
2023-03-14T09:00:52.018Z,63.60
2023-03-14T09:03:19.384Z,63.70
2023-03-14T09:05:46.702Z,63.40
2023-03-14T09:08:14.067Z,63.60
2023-03-14T09:10:41.305Z,63.70
2023-03-14T09:13:08.597Z,63.40
2023-03-14T09:15:35.918Z,64.00
2023-03-14T09:18:03.359Z,63.80
2023-03-14T09:20:30.842Z,64.60
2023-03-14T09:22:58.480Z,64.00
2023-03-14T09:25:25.733Z,64.60
2023-03-14T09:27:53.419Z,63.00
2023-03-14T09:30:20.621Z,63.30
2023-03-14T09:32:47.939Z,64.90
2023-03-14T09:35:16.328Z,64.40
2023-03-14T09:37:43.795Z,64.30
2023-03-14T09:40:16.486Z,63.00
2023-03-14T09:42:44.043Z,62.70
2023-03-14T09:45:15.496Z,64.00
2023-03-14T09:47:56.419Z,63.80
2023-03-14T09:50:31.688Z,63.10
2023-03-14T09:53:05.719Z,62.50
2023-03-14T09:55:35.611Z,64.00
2023-03-14T09:58:10.804Z,63.10
2023-03-14T10:00:38.552Z,62.20
2023-03-14T10:03:14.897Z,62.80
2023-03-14T10:05:43.076Z,61.30
2023-03-14T10:08:16.471Z,62.30
2023-03-14T10:10:43.786Z,63.50
2023-03-14T10:13:11.262Z,61.50
2023-03-14T10:15:39.531Z,61.70
2023-03-14T10:18:13.794Z,63.40
2023-03-14T10:20:46.415Z,62.20
2023-03-14T10:23:13.737Z,63.50
2023-03-14T10:25:44.436Z,63.90
2023-03-14T10:28:29.795Z,63.70
2023-03-14T10:30:58.721Z,63.90
2023-03-14T10:33:30.499Z,62.90
2023-03-14T10:36:07.781Z,60.50
2023-03-14T10:38:37.124Z,61.90
2023-03-14T10:41:26.123Z,62.80
2023-03-14T10:43:59.791Z,59.80
2023-03-14T10:46:30.663Z,60.80
2023-03-14T10:49:31.320Z,61.40
2023-03-14T10:52:09.633Z,61.90
2023-03-14T10:54:36.907Z,61.60
2023-03-14T10:57:07.163Z,63.10
2023-03-14T10:59:40.550Z,62.80
2023-03-14T11:02:26.452Z,63.40
2023-03-14T11:05:15.307Z,62.60
2023-03-14T11:07:44.608Z,63.20
2023-03-14T11:10:30.698Z,63.60
2023-03-14T11:13:28.663Z,65.00
2023-03-14T11:16:03.161Z,63.50
2023-03-14T11:19:00.903Z,64.90
2023-03-14T11:21:31.763Z,63.40
2023-03-14T11:24:42.140Z,63.90
2023-03-14T11:27:19.599Z,62.10
2023-03-14T11:30:05.153Z,63.90
2023-03-14T11:33:02.465Z,61.30
2023-03-14T11:35:38.083Z,61.70
2023-03-14T11:38:29.582Z,61.50
2023-03-14T11:40:59.874Z,61.10
2023-03-14T11:43:35.870Z,60.00
2023-03-14T11:46:17.343Z,60.10
2023-03-14T11:48:58.342Z,61.10
2023-03-14T11:51:34.228Z,60.80
2023-03-14T11:54:28.176Z,61.60
2023-03-14T11:56:59.355Z,62.40
2023-03-14T11:59:33.282Z,62.90
2023-03-14T12:02:07.360Z,62.90
2023-03-14T12:04:49.912Z,62.70
2023-03-14T12:07:49.155Z,62.90
2023-03-14T12:10:16.481Z,64.00
2023-03-14T12:12:44.044Z,62.50
2023-03-14T12:15:20.722Z,63.90
2023-03-14T12:17:57.225Z,63.50
2023-03-14T12:20:26.595Z,62.00
2023-03-14T12:23:03.327Z,61.20
2023-03-14T12:25:33.552Z,62.00
2023-03-14T12:28:00.722Z,61.60
2023-03-14T12:30:37.984Z,60.60
2023-03-14T12:33:11.567Z,61.10
2023-03-14T12:35:45.687Z,60.60
2023-03-14T12:38:49.470Z,61.10
2023-03-14T12:41:45.342Z,61.30
2023-03-14T12:44:31.062Z,62.10
2023-03-14T12:46:59.456Z,62.80
2023-03-14T12:49:38.921Z,61.50
2023-03-14T12:52:20.021Z,63.30
2023-03-14T12:54:58.938Z,65.10
2023-03-14T12:57:47.532Z,65.80
2023-03-14T13:00:21.074Z,66.90
2023-03-14T13:02:49.599Z,66.20
2023-03-14T13:05:22.030Z,65.00
2023-03-14T13:07:50.146Z,64.60
2023-03-14T13:10:20.188Z,65.50
2023-03-14T13:12:53.349Z,66.70
2023-03-14T13:15:57.989Z,66.80
2023-03-14T13:18:33.848Z,66.80
2023-03-14T13:21:21.275Z,66.50
2023-03-14T13:24:07.513Z,64.80
2023-03-14T13:26:41.011Z,64.00
2023-03-14T13:29:25.866Z,64.90
2023-03-14T13:32:01.276Z,65.50
2023-03-14T13:34:34.179Z,67.00
2023-03-14T13:37:01.825Z,69.40
2023-03-14T13:39:30.413Z,73.80
2023-03-14T13:42:02.363Z,76.20
2023-03-14T13:44:40.642Z,80.40
2023-03-14T13:47:15.698Z,82.70
2023-03-14T13:49:44.207Z,84.20
2023-03-14T13:52:31.916Z,84.90
2023-03-14T13:55:00.527Z,85.80
2023-03-14T13:57:27.892Z,85.40
2023-03-14T14:00:07.932Z,85.90
2023-03-14T14:02:38.250Z,85.60
2023-03-14T14:05:06.522Z,85.70
2023-03-14T14:07:33.909Z,85.60
2023-03-14T14:10:02.459Z,85.90
2023-03-14T14:12:43.429Z,86.10
2023-03-14T14:15:20.542Z,86.30
2023-03-14T14:17:55.043Z,86.10
2023-03-14T14:20:32.709Z,86.40
2023-03-14T14:23:02.137Z,86.40
2023-03-14T14:25:33.172Z,86.90
2023-03-14T14:28:15.078Z,85.70
2023-03-14T14:30:42.310Z,83.10
2023-03-14T14:33:21.797Z,82.30
2023-03-14T14:36:01.183Z,83.00
2023-03-14T14:38:31.032Z,82.50
2023-03-14T14:41:03.587Z,82.90
2023-03-14T14:43:35.004Z,82.90
2023-03-14T14:46:04.883Z,83.90
2023-03-14T14:48:37.888Z,84.50
2023-03-14T14:51:07.820Z,84.30
2023-03-14T14:53:44.037Z,84.40
2023-03-14T14:56:23.400Z,83.10
2023-03-14T14:58:50.784Z,82.60
2023-03-14T15:01:22.791Z,81.70
2023-03-14T15:03:52.772Z,81.00
2023-03-14T15:06:21.167Z,80.90
2023-03-14T15:08:50.093Z,80.20
2023-03-14T15:11:19.628Z,81.10
2023-03-14T15:13:46.801Z,80.90
2023-03-14T15:16:16.799Z,81.30
2023-03-14T15:18:44.208Z,82.70
2023-03-14T15:21:11.938Z,82.50
2023-03-14T15:23:39.219Z,83.00
2023-03-14T15:26:14.593Z,82.00
2023-03-14T15:28:41.887Z,81.70
2023-03-14T15:31:11.718Z,81.10
2023-03-14T15:33:39.070Z,80.50
2023-03-14T15:36:17.716Z,80.50
2023-03-14T15:38:44.976Z,80.20
2023-03-14T15:41:12.233Z,81.10
2023-03-14T15:43:39.450Z,81.00
2023-03-14T15:46:09.224Z,81.70
2023-03-14T15:48:36.985Z,81.00
2023-03-14T15:51:04.471Z,81.40
2023-03-14T15:53:31.808Z,81.60
2023-03-14T15:55:59.083Z,81.30
2023-03-14T15:58:26.379Z,81.60
2023-03-14T16:00:53.876Z,81.90
2023-03-14T16:03:21.214Z,82.20
2023-03-14T16:05:48.472Z,82.40
2023-03-14T16:08:15.868Z,82.00
2023-03-14T16:10:44.108Z,81.50
2023-03-14T16:13:12.835Z,82.10
2023-03-14T16:15:40.279Z,82.40
2023-03-14T16:18:20.672Z,83.60
2023-03-14T16:20:59.757Z,83.90
2023-03-14T16:23:28.591Z,82.50
2023-03-14T16:25:57.146Z,82.80
2023-03-14T16:28:25.534Z,81.80
2023-03-14T16:30:53.353Z,82.60
2023-03-14T16:33:20.809Z,82.90
2023-03-14T16:35:56.119Z,83.10
2023-03-14T16:38:24.753Z,82.30
2023-03-14T16:41:02.289Z,82.00
2023-03-14T16:43:29.758Z,81.00
2023-03-14T16:46:01.138Z,80.80
2023-03-14T16:48:29.567Z,78.90
2023-03-14T16:50:56.908Z,78.20
2023-03-14T16:53:25.089Z,77.60
2023-03-14T16:55:52.477Z,78.80
2023-03-14T16:58:21.327Z,79.50
2023-03-14T17:00:49.517Z,79.80
2023-03-14T17:03:18.960Z,78.90
2023-03-14T17:05:52.819Z,79.50
2023-03-14T17:08:21.709Z,78.70
2023-03-14T17:10:52.846Z,78.10
2023-03-14T17:13:26.718Z,77.50
2023-03-14T17:15:59.405Z,77.10
2023-03-14T17:18:28.779Z,75.30
2023-03-14T17:20:56.734Z,74.50
2023-03-14T17:23:27.338Z,74.90
2023-03-14T17:25:55.893Z,73.60
2023-03-14T17:28:26.302Z,73.50
2023-03-14T17:31:18.316Z,72.80
2023-03-14T17:33:47.517Z,73.50
2023-03-14T17:36:15.683Z,72.30
2023-03-14T17:38:44.525Z,72.00
2023-03-14T17:41:19.432Z,71.90
2023-03-14T17:43:49.247Z,72.10
2023-03-14T17:46:17.560Z,71.80
2023-03-14T17:48:46.856Z,71.80
2023-03-14T17:51:15.535Z,72.10
2023-03-14T17:53:43.182Z,72.00
2023-03-14T17:56:11.715Z,71.70
2023-03-14T17:58:39.118Z,70.80
2023-03-14T18:01:17.670Z,71.80
2023-03-14T18:03:45.742Z,72.40
2023-03-14T18:06:14.734Z,71.30
2023-03-14T18:08:43.810Z,71.70
2023-03-14T18:11:12.305Z,71.90
2023-03-14T18:13:40.584Z,71.70
2023-03-14T18:16:14.238Z,72.30
2023-03-14T18:18:42.869Z,72.20
2023-03-14T18:21:11.374Z,71.50
2023-03-14T18:23:39.072Z,70.70
2023-03-14T18:26:07.313Z,69.60
2023-03-14T18:28:34.782Z,70.80
2023-03-14T18:31:06.355Z,70.80
2023-03-14T18:33:38.066Z,71.00
2023-03-14T18:36:06.054Z,70.00
2023-03-14T18:38:34.145Z,70.00
2023-03-14T18:41:06.623Z,70.20
2023-03-14T18:43:34.981Z,70.00
2023-03-14T18:46:02.492Z,69.60
2023-03-14T18:48:30.150Z,68.60
2023-03-14T18:51:00.954Z,68.90
2023-03-14T18:53:31.925Z,68.60
2023-03-14T18:56:00.421Z,68.40
2023-03-14T18:58:28.756Z,68.80
2023-03-14T19:01:04.180Z,68.60
2023-03-14T19:03:32.689Z,68.20
2023-03-14T19:06:00.805Z,68.20
2023-03-14T19:08:28.576Z,68.30
2023-03-14T19:11:00.929Z,67.70
2023-03-14T19:13:28.881Z,67.30
2023-03-14T19:15:56.386Z,66.90
2023-03-14T19:18:24.508Z,67.40
2023-03-14T19:21:06.299Z,67.90
2023-03-14T19:23:34.228Z,68.50
2023-03-14T19:26:02.786Z,69.00
2023-03-14T19:28:32.084Z,68.40
2023-03-14T19:31:01.380Z,68.80
2023-03-14T19:33:30.762Z,69.10
2023-03-14T19:35:58.475Z,69.60
2023-03-14T19:38:25.861Z,69.50
2023-03-14T19:40:58.199Z,69.20
2023-03-14T19:43:26.151Z,69.70
2023-03-14T19:45:54.722Z,69.40
2023-03-14T19:48:22.370Z,69.50
2023-03-14T19:50:49.833Z,69.30
2023-03-14T19:53:17.238Z,69.60
2023-03-14T19:55:46.608Z,69.30
2023-03-14T19:58:13.875Z,69.90
2023-03-14T20:00:41.655Z,70.10
2023-03-14T20:03:08.905Z,70.30
2023-03-14T20:05:39.792Z,70.80
2023-03-14T20:08:07.438Z,70.60
2023-03-14T20:10:37.015Z,70.50
2023-03-14T20:13:15.573Z,70.90
2023-03-14T20:15:46.671Z,71.00
2023-03-14T20:18:13.887Z,71.40
2023-03-14T20:20:44.361Z,71.50
2023-03-14T20:23:13.208Z,71.80
2023-03-14T20:25:40.994Z,71.70
2023-03-14T20:28:08.735Z,71.80
2023-03-14T20:30:36.018Z,71.60
2023-03-14T20:33:05.157Z,71.50
2023-03-14T20:35:33.588Z,71.00
2023-03-14T20:38:00.846Z,70.00
2023-03-14T20:40:28.722Z,70.90
2023-03-14T20:42:56.415Z,70.80
2023-03-14T20:45:23.964Z,70.20
2023-03-14T20:47:51.185Z,70.90
2023-03-14T20:50:18.766Z,71.00
2023-03-14T20:52:46.048Z,71.20
2023-03-14T20:55:13.333Z,71.40
2023-03-14T20:57:40.984Z,72.00
2023-03-14T21:00:09.026Z,71.60
2023-03-14T21:02:36.418Z,72.30
2023-03-14T21:05:04.722Z,72.40
2023-03-14T21:07:34.373Z,72.20
2023-03-14T21:10:01.594Z,71.60
2023-03-14T21:12:28.685Z,71.30
2023-03-14T21:14:55.923Z,71.30
2023-03-14T21:17:23.139Z,70.70
2023-03-14T21:19:58.083Z,70.90
2023-03-14T21:22:26.805Z,69.90
2023-03-14T21:24:54.263Z,70.00
2023-03-14T21:27:22.348Z,70.20
2023-03-14T21:29:49.610Z,71.20
2023-03-14T21:32:17.469Z,71.50
2023-03-14T21:34:45.018Z,71.80
2023-03-14T21:37:12.262Z,72.60
2023-03-14T21:39:39.594Z,73.50
2023-03-14T21:42:09.335Z,73.60
2023-03-14T21:44:37.468Z,73.80
2023-03-14T21:47:06.259Z,73.80
2023-03-14T21:49:38.190Z,73.80
2023-03-14T21:52:10.985Z,74.10
2023-03-14T21:54:38.268Z,73.90
2023-03-14T21:57:07.302Z,74.10
2023-03-14T21:59:36.598Z,73.90
2023-03-14T22:02:06.601Z,73.60
2023-03-14T22:04:34.813Z,73.50
2023-03-14T22:07:07.608Z,74.10
2023-03-14T22:09:35.796Z,74.40
2023-03-14T22:12:03.681Z,74.90
2023-03-14T22:14:31.016Z,75.50
2023-03-14T22:16:59.910Z,76.20
2023-03-14T22:19:27.826Z,76.40
2023-03-14T22:21:55.034Z,76.60
2023-03-14T22:24:22.300Z,76.80
2023-03-14T22:26:54.576Z,77.00
2023-03-14T22:29:22.922Z,77.50
2023-03-14T22:31:50.695Z,77.90
2023-03-14T22:34:18.000Z,77.90
2023-03-14T22:36:45.255Z,78.10
2023-03-14T22:39:12.602Z,78.50
2023-03-14T22:41:39.797Z,78.60
2023-03-14T22:44:13.346Z,78.70
2023-03-14T22:46:40.543Z,78.70
2023-03-14T22:49:07.877Z,78.90
2023-03-14T22:51:35.121Z,78.90
2023-03-14T22:54:02.384Z,79.00
2023-03-14T22:56:29.902Z,79.10
2023-03-14T22:58:58.860Z,79.30
2023-03-14T23:01:26.689Z,79.40
2023-03-14T23:03:56.204Z,78.90
2023-03-14T23:06:24.009Z,79.10
2023-03-14T23:08:51.323Z,78.80
2023-03-14T23:11:18.593Z,78.50
2023-03-14T23:13:48.358Z,78.70
2023-03-14T23:16:15.778Z,78.80
2023-03-14T23:18:43.559Z,78.90
2023-03-14T23:21:13.874Z,79.00
2023-03-14T23:23:46.565Z,79.00
2023-03-14T23:26:16.501Z,79.00
2023-03-14T23:28:44.312Z,79.10
2023-03-14T23:31:14.359Z,79.00
2023-03-14T23:33:42.596Z,78.70
2023-03-14T23:36:13.209Z,78.60
2023-03-14T23:38:42.627Z,78.20
2023-03-14T23:41:14.592Z,78.30
2023-03-14T23:43:45.368Z,77.70
2023-03-14T23:46:13.250Z,77.60
2023-03-14T23:48:46.628Z,77.60
2023-03-14T23:51:15.116Z,77.50
2023-03-14T23:53:43.061Z,77.30
2023-03-14T23:56:12.608Z,77.20
2023-03-14T23:58:40.114Z,77.10
